Time;durP1;ratioP1;P1;durP2;ratioP2;P2;SDS_P1;SDS_P2;PMS_P1;PMS_P2;Temp;Humidity;BMP_temperature;BMP_pressure;BME280_temperature;BME280_humidity;BME280_pressure;Samples;Min_cycle;Max_cycle;Signal;HPM_P1;HPM_P2
2023/01/16 00:01:05;;;;;;;25.30;7.80;;;;;;;6.02;100.00;97928.21;67792;1278;1016370;-61
2023/01/16 00:04:08;;;;;;;24.70;7.70;;;;;;;6.01;100.00;97925.66;67828;1278;1016512;-61
2023/01/16 00:07:10;;;;;;;24.60;8.30;;;;;;;6.06;100.00;97927.48;67810;1278;1016309;-61
2023/01/16 00:10:12;;;;;;;25.30;8.10;;;;;;;6.04;100.00;97923.06;67850;1278;1016422;-58
2023/01/16 00:13:15;;;;;;;25.20;8.30;;;;;;;6.05;100.00;97926.30;67840;1277;1015959;-58
2023/01/16 00:16:18;;;;;;;23.70;7.90;;;;;;;5.91;100.00;97931.05;67803;1277;1016413;-59
2023/01/16 00:19:21;;;;;;;24.10;8.00;;;;;;;5.93;100.00;97934.40;67858;1278;1016333;-58
2023/01/16 00:22:23;;;;;;;22.10;7.70;;;;;;;5.90;100.00;97934.55;67805;1278;1016214;-58
2023/01/16 00:25:26;;;;;;;26.60;8.20;;;;;;;5.90;100.00;97935.76;67821;1278;1016285;-58
2023/01/16 00:28:28;;;;;;;23.40;8.40;;;;;;;5.90;100.00;97934.55;67824;1277;1015846;-58
2023/01/16 00:31:30;;;;;;;23.60;8.60;;;;;;;5.87;100.00;97931.45;67816;1277;1016347;-58
2023/01/16 00:34:33;;;;;;;24.20;8.50;;;;;;;5.84;100.00;97919.09;67855;1254;1015866;-58
2023/01/16 00:37:35;;;;;;;25.70;8.30;;;;;;;5.86;100.00;97920.38;67833;1277;1016365;-58
2023/01/16 00:40:38;;;;;;;24.30;8.60;;;;;;;5.84;100.00;97916.00;67804;1278;1016225;-58
2023/01/16 00:43:40;;;;;;;25.50;9.30;;;;;;;5.78;100.00;97916.14;67799;1278;1016200;-58
2023/01/16 00:46:43;;;;;;;23.90;8.50;;;;;;;5.70;100.00;97916.44;67828;1278;1016162;-58
2023/01/16 00:49:45;;;;;;;24.40;8.80;;;;;;;5.57;100.00;97916.65;67843;1277;1016367;-58
2023/01/16 00:52:48;;;;;;;26.60;8.60;;;;;;;5.68;100.00;97914.30;67837;1277;1016191;-58
2023/01/16 00:55:50;;;;;;;;;;;;;;;5.65;100.00;97918.60;67752;1277;1016704;-58
2023/01/16 00:58:53;;;;;;;25.90;10.10;;;;;;;5.65;100.00;97917.91;67790;1278;1015758;-58
2023/01/16 01:01:55;;;;;;;25.90;9.60;;;;;;;5.63;100.00;97920.13;67831;1278;1017302;-58
2023/01/16 01:04:58;;;;;;;25.90;9.90;;;;;;;5.61;100.00;97919.73;67833;1277;1016467;-58
2023/01/16 01:08:00;;;;;;;25.70;9.50;;;;;;;5.61;100.00;97916.58;67849;1278;1016410;-58
2023/01/16 01:11:03;;;;;;;25.90;8.90;;;;;;;5.50;100.00;97914.36;67792;1277;1016452;-58
2023/01/16 01:14:05;;;;;;;26.80;9.00;;;;;;;5.47;100.00;97918.73;67836;1278;1017877;-58
2023/01/16 01:17:07;;;;;;;24.80;8.90;;;;;;;5.56;100.00;97915.81;67852;1278;1016512;-59
2023/01/16 01:20:10;;;;;;;24.90;9.30;;;;;;;5.43;100.00;97915.81;67833;1277;1016423;-58
2023/01/16 01:23:12;;;;;;;26.20;8.80;;;;;;;5.32;100.00;97914.69;67813;1277;1016440;-58
2023/01/16 01:26:14;;;;;;;24.20;8.60;;;;;;;5.28;100.00;97913.71;67793;1278;1016427;-59
2023/01/16 01:29:17;;;;;;;25.30;8.50;;;;;;;5.19;100.00;97913.44;67810;1277;1016430;-58
2023/01/16 01:32:19;;;;;;;25.90;8.00;;;;;;;5.17;100.00;97908.91;67865;1278;1016375;-58
2023/01/16 01:35:22;;;;;;;26.00;8.30;;;;;;;5.12;100.00;97906.39;67840;1278;1016371;-58
2023/01/16 01:38:24;;;;;;;24.70;8.20;;;;;;;5.11;100.00;97905.91;67856;1278;1015926;-58
2023/01/16 01:41:27;;;;;;;24.80;8.80;;;;;;;5.04;100.00;97900.38;67812;1254;1017824;-58
2023/01/16 01:44:29;;;;;;;24.30;8.20;;;;;;;5.00;100.00;97896.98;67808;1278;1016872;-58
2023/01/16 01:47:31;;;;;;;25.20;8.10;;;;;;;4.98;100.00;97901.23;67798;1277;1016440;-58
2023/01/16 01:50:34;;;;;;;26.90;8.60;;;;;;;4.91;100.00;97901.42;67756;1278;1016495;-58
2023/01/16 01:53:36;;;;;;;24.70;8.50;;;;;;;4.99;100.00;97905.70;67820;1278;1016347;-58
2023/01/16 01:56:39;;;;;;;26.70;8.60;;;;;;;4.96;100.00;97899.94;67831;1277;1019181;-58
2023/01/16 01:59:41;;;;;;;22.30;7.40;;;;;;;4.80;100.00;97894.19;67779;1278;1016318;-59
2023/01/16 02:02:44;;;;;;;25.30;8.40;;;;;;;4.81;100.00;97891.70;67779;1278;1016519;-58
2023/01/16 02:05:46;;;;;;;26.60;8.70;;;;;;;4.78;100.00;97888.91;67858;1277;1016458;-59
2023/01/16 02:08:49;;;;;;;23.50;7.80;;;;;;;4.75;100.00;97884.27;67830;1278;1016263;-58
2023/01/16 02:11:51;;;;;;;25.10;8.80;;;;;;;4.67;100.00;97880.84;67804;1278;1016357;-59
2023/01/16 02:14:53;;;;;;;26.00;9.60;;;;;;;4.68;100.00;97875.91;67787;1277;1016376;-58
2023/01/16 02:21:16;;;;;;;28.60;9.80;;;;;;;4.64;100.00;97876.88;67823;1278;1015979;-59
2023/01/16 02:24:19;;;;;;;;;;;;;;;4.75;100.00;97878.72;67862;1278;1016382;-59
2023/01/16 02:27:21;;;;;;;26.20;9.90;;;;;;;4.74;100.00;97873.36;67784;1278;1016376;-60
2023/01/16 02:30:23;;;;;;;30.50;10.20;;;;;;;4.89;100.00;97868.29;67815;1278;1016256;-59
2023/01/16 02:33:27;;;;;;;29.00;10.20;;;;;;;4.72;100.00;97865.54;67806;1277;1016415;-59
2023/01/16 02:36:29;;;;;;;27.30;10.20;;;;;;;4.66;100.00;97861.35;67806;1278;1015968;-59
2023/01/16 02:39:32;;;;;;;27.90;10.30;;;;;;;4.67;100.00;97860.04;67754;1278;1016224;-59
2023/01/16 02:42:34;;;;;;;27.30;10.20;;;;;;;4.62;100.00;97855.81;67806;1278;1018271;-59
2023/01/16 02:45:36;;;;;;;27.00;10.30;;;;;;;4.58;100.00;97856.20;67825;1278;1016445;-59
2023/01/16 02:48:39;;;;;;;29.10;10.40;;;;;;;4.43;100.00;97853.36;67793;1278;1016115;-59
2023/01/16 02:51:41;;;;;;;30.00;10.30;;;;;;;4.34;100.00;97846.86;67824;1277;1018217;-59
2023/01/16 02:54:44;;;;;;;32.20;11.60;;;;;;;4.38;100.00;97846.01;67774;1254;1015811;-59
2023/01/16 02:57:46;;;;;;;32.60;12.10;;;;;;;4.34;100.00;97851.55;67782;1278;1016393;-59
2023/01/16 03:00:48;;;;;;;29.40;11.20;;;;;;;4.10;100.00;97851.23;67811;1278;1017568;-59
2023/01/16 03:03:51;;;;;;;31.90;10.90;;;;;;;3.95;100.00;97852.08;67865;1278;1016227;-59
2023/01/16 03:06:53;;;;;;;30.60;11.30;;;;;;;3.99;100.00;97853.13;67808;1278;1016294;-59
2023/01/16 03:09:56;;;;;;;29.10;10.90;;;;;;;3.99;100.00;97855.19;67780;1278;1016469;-59
2023/01/16 03:12:58;;;;;;;28.80;10.40;;;;;;;4.07;100.00;97856.02;67813;1278;1016095;-60
2023/01/16 03:16:01;;;;;;;27.30;9.80;;;;;;;4.15;100.00;97854.05;67839;1278;1016468;-59
2023/01/16 03:19:03;;;;;;;27.40;10.00;;;;;;;4.18;100.00;97856.32;67811;1278;1016377;-59
2023/01/16 03:22:05;;;;;;;30.50;10.80;;;;;;;4.22;100.00;97863.09;67812;1277;1016316;-59
2023/01/16 03:25:09;;;;;;;27.80;11.20;;;;;;;4.23;100.00;97861.09;67818;1278;1016514;-59
2023/01/16 03:28:12;;;;;;;31.20;11.30;;;;;;;4.11;100.00;97856.34;67819;1277;1016680;-59
2023/01/16 03:31:14;;;;;;;31.30;10.70;;;;;;;4.08;100.00;97855.12;67801;1278;1016389;-59
2023/01/16 03:34:19;;;;;;;32.60;11.10;;;;;;;4.02;100.00;97848.29;67741;1278;1016267;-59
2023/01/16 03:37:22;;;;;;;30.40;11.20;;;;;;;4.04;100.00;97852.55;67795;1278;1015732;-59
2023/01/16 03:40:25;;;;;;;29.60;10.20;;;;;;;4.05;100.00;97853.85;67726;1278;1016460;-59
2023/01/16 03:43:27;;;;;;;;;;;;;;;3.99;100.00;97854.33;67846;1278;1016958;-59
2023/01/16 03:46:29;;;;;;;28.30;10.60;;;;;;;3.95;100.00;97855.75;67827;1278;1016516;-59
2023/01/16 03:49:32;;;;;;;28.10;11.40;;;;;;;3.86;100.00;97856.90;67770;1278;1016440;-59
2023/01/16 03:52:34;;;;;;;31.40;11.40;;;;;;;3.82;100.00;97856.02;67801;1278;1016709;-59
2023/01/16 03:55:37;;;;;;;29.40;11.30;;;;;;;3.78;100.00;97857.41;67791;1277;1016202;-59
2023/01/16 03:58:39;;;;;;;27.50;10.80;;;;;;;3.78;100.00;97855.86;67812;1278;1016382;-59
2023/01/16 04:01:42;;;;;;;29.30;11.80;;;;;;;3.77;100.00;97858.00;67782;1278;1016515;-59
2023/01/16 04:04:45;;;;;;;31.90;12.00;;;;;;;3.80;100.00;97850.23;67774;1278;1016957;-59
2023/01/16 04:07:48;;;;;;;28.90;11.60;;;;;;;3.81;100.00;97843.48;67821;1277;1016531;-59
2023/01/16 04:10:50;;;;;;;29.40;11.40;;;;;;;3.83;100.00;97837.85;67798;1278;1019423;-59
2023/01/16 04:13:52;;;;;;;31.00;11.80;;;;;;;3.85;100.00;97838.63;67791;1278;1016427;-59
2023/01/16 04:16:55;;;;;;;30.60;12.20;;;;;;;3.82;100.00;97843.56;67809;1277;1015686;-59
2023/01/16 04:19:57;;;;;;;31.80;12.50;;;;;;;3.82;100.00;97841.70;67828;1277;1016974;-59
2023/01/16 04:23:00;;;;;;;31.80;11.70;;;;;;;3.68;100.00;97839.27;67848;1278;1018052;-59
2023/01/16 04:26:02;;;;;;;29.70;12.50;;;;;;;3.75;100.00;97836.48;67854;1278;1015979;-59
2023/01/16 04:29:05;;;;;;;;;;;;;;;3.74;100.00;97837.91;67801;1277;1016269;-60
2023/01/16 04:32:07;;;;;;;34.80;14.20;;;;;;;3.83;100.00;97834.52;67829;1278;1018191;-59
2023/01/16 04:35:10;;;;;;;30.80;12.20;;;;;;;4.04;100.00;97834.55;67788;1278;1016279;-59
2023/01/16 04:38:12;;;;;;;31.80;13.10;;;;;;;3.91;100.00;97824.80;67808;1277;1016471;-59
2023/01/16 04:41:35;;;;;;;31.10;13.00;;;;;;;3.98;100.00;97820.63;67789;1278;1016196;-59
2023/01/16 04:44:38;;;;;;;32.00;14.30;;;;;;;3.97;100.00;97817.59;67822;1278;1016347;-59
2023/01/16 04:47:40;;;;;;;33.50;14.60;;;;;;;4.03;100.00;97810.20;67834;1278;1016424;-59
2023/01/16 04:50:43;;;;;;;32.40;14.00;;;;;;;4.03;100.00;97806.91;67797;1278;1016401;-59
2023/01/16 04:53:45;;;;;;;36.00;15.10;;;;;;;4.06;100.00;97794.64;67815;1278;1016354;-59
2023/01/16 04:56:47;;;;;;;31.80;14.00;;;;;;;4.02;100.00;97790.20;67797;1278;1015863;-59
2023/01/16 04:59:50;;;;;;;33.10;15.30;;;;;;;3.99;100.00;97791.04;67803;1278;1016211;-59
2023/01/16 05:02:52;;;;;;;35.10;16.50;;;;;;;4.06;100.00;97792.73;67832;1278;1016277;-59
2023/01/16 05:05:55;;;;;;;34.50;15.70;;;;;;;4.09;100.00;97788.81;67790;1277;1016491;-59
2023/01/16 05:08:57;;;;;;;34.20;15.50;;;;;;;4.10;100.00;97782.01;67791;1278;1016429;-59
2023/01/16 05:11:59;;;;;;;36.50;15.90;;;;;;;4.05;100.00;97776.52;67716;1278;1018197;-59
2023/01/16 05:15:02;;;;;;;41.30;17.20;;;;;;;4.09;100.00;97775.11;67853;1278;1016504;-59
2023/01/16 05:18:05;;;;;;;38.20;15.80;;;;;;;4.05;100.00;97771.19;67849;1278;1016127;-59
2023/01/16 05:21:08;;;;;;;36.90;16.90;;;;;;;4.15;100.00;97764.97;67779;1278;1018145;-59
2023/01/16 05:24:11;;;;;;;36.80;18.70;;;;;;;4.02;100.00;97760.41;67820;1278;1016264;-59
2023/01/16 05:27:13;;;;;;;44.70;22.60;;;;;;;4.16;100.00;97762.48;67785;1278;1016098;-59
2023/01/16 05:30:15;;;;;;;42.40;22.40;;;;;;;4.20;100.00;97762.45;67814;1278;1016513;-59
2023/01/16 05:33:18;;;;;;;39.20;19.90;;;;;;;4.19;100.00;97759.23;67777;1278;1018670;-59
2023/01/16 05:36:20;;;;;;;36.70;17.40;;;;;;;4.14;100.00;97757.20;67843;1278;1017664;-59
2023/01/16 05:39:22;;;;;;;38.00;18.20;;;;;;;4.18;100.00;97760.50;67807;1278;1019222;-59
2023/01/16 05:42:25;;;;;;;38.30;16.30;;;;;;;4.11;100.00;97753.05;67805;1278;1016342;-59
2023/01/16 05:45:27;;;;;;;38.90;17.90;;;;;;;4.13;100.00;97754.69;67771;1278;1016225;-59
2023/01/16 05:48:31;;;;;;;38.30;17.70;;;;;;;4.16;100.00;97755.38;67728;1278;1016368;-59
2023/01/16 05:51:33;;;;;;;36.20;16.40;;;;;;;4.13;100.00;97755.89;67745;1278;1016440;-59
2023/01/16 05:54:36;;;;;;;38.00;17.50;;;;;;;4.16;100.00;97755.90;67768;1277;1016919;-59
2023/01/16 05:57:38;;;;;;;38.60;18.50;;;;;;;4.28;100.00;97753.72;67793;1278;1016414;-59
2023/01/16 06:00:41;;;;;;;40.00;17.90;;;;;;;4.37;100.00;97750.46;67854;1278;1016311;-59
2023/01/16 06:03:43;;;;;;;56.80;21.10;;;;;;;4.40;100.00;97746.69;67863;1278;1016487;-60
2023/01/16 06:06:45;;;;;;;56.60;21.50;;;;;;;4.33;100.00;97750.34;67766;1278;1016417;-59
2023/01/16 06:09:48;;;;;;;51.40;19.80;;;;;;;4.37;100.00;97745.81;67778;1278;1016492;-59
2023/01/16 06:12:50;;;;;;;43.90;17.40;;;;;;;4.40;100.00;97741.66;67783;1278;1016290;-59
2023/01/16 06:15:53;;;;;;;42.90;17.30;;;;;;;4.45;100.00;97742.77;67805;1278;1017991;-59
2023/01/16 06:18:55;;;;;;;39.80;16.20;;;;;;;4.43;100.00;97740.12;67723;1278;1016241;-59
2023/01/16 06:21:58;;;;;;;41.20;17.10;;;;;;;4.34;100.00;97740.06;67778;1278;1016203;-59
2023/01/16 06:25:00;;;;;;;50.50;20.60;;;;;;;4.34;100.00;97733.00;67758;1278;1016493;-59
2023/01/16 06:28:03;;;;;;;60.00;24.00;;;;;;;4.30;100.00;97728.67;67845;1278;1016050;-59
2023/01/16 06:31:05;;;;;;;78.10;29.60;;;;;;;4.31;100.00;97722.55;67792;1278;1016272;-59
2023/01/16 06:34:08;;;;;;;77.80;33.50;;;;;;;4.33;100.00;97720.55;67796;1278;1018282;-59
2023/01/16 06:37:10;;;;;;;83.80;34.40;;;;;;;4.32;100.00;97716.79;67767;1278;1016302;-59
2023/01/16 06:40:12;;;;;;;65.10;27.70;;;;;;;4.29;100.00;97712.29;67817;1278;1016286;-59
2023/01/16 06:43:16;;;;;;;52.20;21.50;;;;;;;4.50;100.00;97713.07;67798;1278;1016423;-59
2023/01/16 06:46:18;;;;;;;44.70;19.90;;;;;;;4.48;100.00;97713.86;67780;1278;1016374;-59
2023/01/16 06:49:21;;;;;;;43.80;19.20;;;;;;;4.59;100.00;97709.66;67822;1278;1018121;-59
2023/01/16 06:52:23;;;;;;;41.80;19.80;;;;;;;4.56;100.00;97703.77;67834;1278;1016437;-59
2023/01/16 06:55:26;;;;;;;39.30;18.40;;;;;;;4.46;100.00;97707.42;67766;1278;1016388;-59
2023/01/16 06:58:28;;;;;;;37.70;16.70;;;;;;;4.41;100.00;97703.91;67752;1278;1016494;-59
2023/01/16 07:01:31;;;;;;;37.90;15.70;;;;;;;4.39;100.00;97703.50;67807;1277;1016481;-59
2023/01/16 07:04:33;;;;;;;35.70;16.10;;;;;;;4.40;100.00;97698.26;67821;1278;1016426;-59
2023/01/16 07:07:35;;;;;;;37.70;16.60;;;;;;;4.40;100.00;97697.17;67801;1278;1016430;-59
2023/01/16 07:10:38;;;;;;;41.80;17.50;;;;;;;4.52;100.00;97697.05;67750;1277;1016443;-59
2023/01/16 07:13:40;;;;;;;38.40;16.50;;;;;;;4.51;100.00;97697.66;67803;1278;1016345;-59
2023/01/16 07:23:23;;;;;;;37.80;17.10;;;;;;;4.52;100.00;97681.66;67760;1278;1016488;-59
2023/01/16 07:26:26;;;;;;;40.20;18.40;;;;;;;4.51;100.00;97676.84;67782;1277;1016066;-59
2023/01/16 07:29:28;;;;;;;38.30;17.10;;;;;;;4.52;100.00;97677.64;67781;1278;1016665;-59
2023/01/16 07:32:30;;;;;;;36.40;15.50;;;;;;;4.67;100.00;97674.11;67841;1277;1015997;-59
2023/01/16 07:35:33;;;;;;;33.80;14.80;;;;;;;4.73;100.00;97676.85;67836;1278;1016513;-59
2023/01/16 07:38:35;;;;;;;31.90;14.30;;;;;;;4.75;100.00;97679.20;67808;1277;1016437;-59
2023/01/16 07:41:38;;;;;;;31.70;12.20;;;;;;;4.67;100.00;97676.31;67803;1278;1016500;-59
2023/01/16 07:44:40;;;;;;;31.10;13.10;;;;;;;4.94;100.00;97672.43;67810;1278;1017996;-59
2023/01/16 07:47:43;;;;;;;30.70;12.30;;;;;;;4.91;100.00;97668.42;67854;1277;1017214;-59
2023/01/16 07:50:45;;;;;;;29.50;12.30;;;;;;;4.98;100.00;97666.15;67804;1278;1015677;-59
2023/01/16 07:53:48;;;;;;;32.70;14.40;;;;;;;5.04;100.00;97665.94;67817;1278;1016439;-59
2023/01/16 07:56:50;;;;;;;34.00;14.10;;;;;;;5.06;100.00;97667.75;67793;1254;1016444;-59
2023/01/16 07:59:53;;;;;;;36.40;15.10;;;;;;;5.16;100.00;97658.52;67789;1278;1016472;-59
2023/01/16 08:02:55;;;;;;;32.40;13.20;;;;;;;5.30;100.00;97656.48;67820;1278;1016352;-59
2023/01/16 08:05:57;;;;;;;30.50;13.10;;;;;;;5.26;100.00;97656.74;67829;1278;1016386;-59
2023/01/16 08:09:00;;;;;;;31.40;13.20;;;;;;;5.32;100.00;97658.11;67762;1277;1016534;-59
2023/01/16 08:12:03;;;;;;;31.00;13.40;;;;;;;5.34;100.00;97657.28;67781;1278;1016232;-59
2023/01/16 08:15:05;;;;;;;;;;;;;;;5.40;100.00;97660.58;67860;1278;1018269;-60
2023/01/16 08:18:07;;;;;;;29.90;13.00;;;;;;;5.42;100.00;97660.30;67861;1278;1016247;-59
2023/01/16 08:21:10;;;;;;;34.40;12.80;;;;;;;5.60;100.00;97654.92;67804;1278;1017904;-59
2023/01/16 08:24:14;;;;;;;41.70;17.70;;;;;;;5.68;100.00;97648.90;67785;1278;1016195;-59
2023/01/16 08:27:17;;;;;;;44.70;17.80;;;;;;;5.76;100.00;97645.83;67806;1278;1018814;-59
2023/01/16 08:30:19;;;;;;;33.50;13.40;;;;;;;5.79;100.00;97637.69;67849;1277;1016402;-59
2023/01/16 08:33:22;;;;;;;27.80;11.20;;;;;;;5.74;100.00;97628.76;67833;1278;1016284;-60
2023/01/16 08:36:25;;;;;;;29.10;11.00;;;;;;;5.81;100.00;97624.16;67831;1278;1016576;-59
2023/01/16 08:39:27;;;;;;;30.50;11.80;;;;;;;5.92;100.00;97621.98;67832;1278;1016312;-59
2023/01/16 08:52:29;;;;;;;29.90;11.00;;;;;;;6.40;100.00;97608.74;67889;1277;1016470;-59
2023/01/16 08:55:32;;;;;;;29.40;10.50;;;;;;;6.46;100.00;97606.65;67859;1278;1016481;-59
2023/01/16 08:58:34;;;;;;;29.50;11.40;;;;;;;6.53;100.00;97605.67;67843;1278;1016620;-59
2023/01/16 09:01:37;;;;;;;31.20;11.60;;;;;;;6.63;100.00;97601.79;67750;1278;1016442;-59
2023/01/16 09:04:39;;;;;;;28.10;9.70;;;;;;;6.74;100.00;97595.49;67772;1278;1016449;-59
2023/01/16 09:07:42;;;;;;;27.00;9.00;;;;;;;6.80;100.00;97597.19;67785;1278;1016618;-59
2023/01/16 09:13:48;;;;;;;26.00;8.60;;;;;;;6.85;100.00;97598.08;67835;1278;1016219;-59
2023/01/16 09:14:06;;;;;;;26.00;8.70;;;;;;;6.86;100.00;97594.35;67778;1278;1016414;-59
2023/01/16 09:17:09;;;;;;;25.30;8.20;;;;;;;6.98;100.00;97591.71;67881;1278;1016112;-59
2023/01/16 09:20:11;;;;;;;24.70;7.80;;;;;;;6.99;100.00;97586.42;67813;1278;1016369;-59
2023/01/16 09:23:14;;;;;;;;;;;;;;;7.01;100.00;97583.80;67801;1278;1016488;-59
2023/01/16 09:26:17;;;;;;;26.60;8.80;;;;;;;7.04;100.00;97583.98;67842;1278;1016433;-59
2023/01/16 09:29:19;;;;;;;26.60;8.80;;;;;;;7.10;100.00;97572.61;67863;1264;1016395;-59
2023/01/16 09:32:22;;;;;;;25.20;9.10;;;;;;;7.09;100.00;97572.67;67744;1278;1020040;-59
2023/01/16 09:35:24;;;;;;;;;;;;;;;7.25;100.00;97573.56;67806;1278;1016494;-59
2023/01/16 09:38:27;;;;;;;29.40;9.80;;;;;;;7.32;100.00;97570.44;67866;1278;1017684;-59
2023/01/16 09:44:46;;;;;;;25.00;9.10;;;;;;;7.39;100.00;97561.33;67697;1278;1016429;-59
2023/01/16 09:47:49;;;;;;;28.80;9.80;;;;;;;7.49;100.00;97560.48;67776;1278;1016767;-59
2023/01/16 09:50:51;;;;;;;27.00;9.50;;;;;;;7.60;100.00;97554.48;67835;1278;1016133;-59
2023/01/16 10:00:34;;;;;;;25.20;9.70;;;;;;;7.95;100.00;97539.02;67831;1277;1016955;-59
2023/01/16 10:03:41;;;;;;;25.40;9.90;;;;;;;7.99;100.00;97538.19;67792;1278;1016174;-59
2023/01/16 10:06:44;;;;;;;26.60;10.20;;;;;;;8.04;100.00;97532.67;67876;1278;1015872;-60
2023/01/16 10:09:46;;;;;;;27.90;9.80;;;;;;;7.99;100.00;97521.14;67824;1278;1015967;-59
2023/01/16 10:12:49;;;;;;;25.70;9.60;;;;;;;8.09;100.00;97509.48;67849;1277;1016553;-59
2023/01/16 10:15:51;;;;;;;26.70;9.40;;;;;;;8.05;100.00;97505.23;67805;1278;1016444;-59
2023/01/16 10:18:54;;;;;;;24.90;9.00;;;;;;;8.30;100.00;97494.93;67867;1278;1016408;-59
2023/01/16 10:21:56;;;;;;;28.30;10.20;;;;;;;8.34;100.00;97483.45;67818;1278;1016458;-60
2023/01/16 10:25:02;;;;;;;27.20;10.20;;;;;;;8.33;100.00;97474.68;65703;1278;1016437;-60
2023/01/16 10:28:05;;;;;;;25.00;9.40;;;;;;;8.22;100.00;97470.60;67808;1277;1016395;-59
2023/01/16 10:31:08;;;;;;;25.40;9.30;;;;;;;8.17;100.00;97467.42;67801;1277;1016389;-59
2023/01/16 10:34:10;;;;;;;24.40;8.90;;;;;;;8.15;100.00;97463.21;67830;1278;1016494;-59
2023/01/16 10:37:13;;;;;;;28.60;10.00;;;;;;;8.27;100.00;97449.48;67799;1278;1015922;-59
2023/01/16 10:40:16;;;;;;;23.90;8.40;;;;;;;8.26;100.00;97440.72;67802;1278;1016466;-59
2023/01/16 10:49:58;;;;;;;22.80;8.00;;;;;;;8.66;100.00;97412.48;67803;1277;1016466;-59
2023/01/16 10:53:01;;;;;;;22.40;8.10;;;;;;;8.78;100.00;97404.24;67810;1278;1016238;-59
2023/01/16 10:56:04;;;;;;;24.30;7.50;;;;;;;8.54;100.00;97398.42;67854;1277;1017138;-59
2023/01/16 10:59:06;;;;;;;22.00;7.30;;;;;;;8.56;100.00;97389.04;67838;1277;1016422;-59
2023/01/16 11:02:08;;;;;;;21.70;7.00;;;;;;;8.53;100.00;97382.12;67795;1278;1016398;-59
2023/01/16 11:05:11;;;;;;;22.10;7.60;;;;;;;8.57;100.00;97370.98;67710;1278;1016084;-59
2023/01/16 11:08:13;;;;;;;26.70;8.70;;;;;;;8.53;100.00;97367.11;67830;1277;1016480;-59
2023/01/16 11:21:12;;;;;;;25.90;9.40;;;;;;;8.67;100.00;97344.47;67855;1277;1016240;-61
2023/01/16 11:24:15;;;;;;;25.40;9.80;;;;;;;8.74;100.00;97336.25;67800;1277;1016287;-61
2023/01/16 11:27:17;;;;;;;27.40;10.50;;;;;;;8.80;100.00;97329.28;67780;1278;1016363;-59
2023/01/16 11:30:19;;;;;;;27.20;10.90;;;;;;;8.78;100.00;97321.68;67872;1277;1017760;-58
2023/01/16 11:33:22;;;;;;;29.80;10.70;;;;;;;8.72;100.00;97313.05;67880;1278;1017044;-58
2023/01/16 11:36:24;;;;;;;29.50;12.10;;;;;;;8.39;100.00;97312.60;67783;1278;1016077;-59
2023/01/16 11:39:27;;;;;;;28.90;11.70;;;;;;;8.59;100.00;97301.31;67823;1277;1016807;-58
2023/01/16 11:46:07;;;;;;;28.30;12.20;;;;;;;8.31;100.00;97287.39;67829;1278;1016528;-60
2023/01/16 11:49:10;;;;;;;31.60;12.30;;;;;;;8.39;100.00;97288.59;67862;1277;1016595;-60
2023/01/16 11:52:12;;;;;;;29.00;12.80;;;;;;;8.37;100.00;97287.66;67804;1277;1016450;-59
2023/01/16 11:55:15;;;;;;;29.00;11.60;;;;;;;8.54;100.00;97281.33;67802;1278;1016403;-59
2023/01/16 11:58:17;;;;;;;30.70;12.30;;;;;;;8.55;100.00;97273.23;67785;1277;1016358;-60
2023/01/16 12:01:19;;;;;;;30.70;12.60;;;;;;;8.73;100.00;97264.84;67763;1278;1016287;-59
2023/01/16 12:04:22;;;;;;;;;;;;;;;8.94;100.00;97257.98;67843;1277;1016262;-59
2023/01/16 12:07:24;;;;;;;26.70;10.80;;;;;;;9.02;100.00;97254.71;67846;1277;1016576;-59
2023/01/16 12:10:27;;;;;;;26.70;11.30;;;;;;;8.96;100.00;97247.41;67847;1277;1016482;-60
2023/01/16 12:16:50;;;;;;;25.30;10.10;;;;;;;8.95;100.00;97238.88;67798;1278;1016410;-61
2023/01/16 12:19:52;;;;;;;25.80;11.00;;;;;;;8.85;100.00;97231.15;67833;1277;1016475;-58
2023/01/16 12:22:54;;;;;;;24.20;9.70;;;;;;;8.82;100.00;97231.09;67838;1278;1016033;-58
2023/01/16 12:25:57;;;;;;;23.30;9.30;;;;;;;8.75;100.00;97223.77;67814;1278;1016105;-58
2023/01/16 12:29:00;;;;;;;23.20;9.70;;;;;;;8.61;100.00;97212.61;67819;1278;1017144;-58
2023/01/16 12:32:02;;;;;;;22.60;9.00;;;;;;;8.59;100.00;97210.58;67797;1277;1016196;-58
2023/01/16 12:35:05;;;;;;;24.40;9.50;;;;;;;8.57;100.00;97207.41;67814;1278;1016290;-58
2023/01/16 12:38:07;;;;;;;22.60;9.30;;;;;;;8.61;100.00;97204.98;67828;1278;1016375;-58
2023/01/16 12:44:30;;;;;;;22.80;9.10;;;;;;;8.71;100.00;97202.30;67793;1277;1016674;-60
2023/01/16 12:47:32;;;;;;;22.90;9.20;;;;;;;8.80;100.00;97195.81;67816;1278;1016083;-59
2023/01/16 12:50:35;;;;;;;22.70;9.00;;;;;;;8.84;100.00;97190.98;67851;1278;1016855;-58
2023/01/16 12:53:37;;;;;;;22.10;8.40;;;;;;;8.90;100.00;97188.09;67768;1277;1016386;-58
2023/01/16 12:56:40;;;;;;;;;;;;;;;8.91;100.00;97179.25;67799;1277;1016531;-58
2023/01/16 12:59:42;;;;;;;22.90;8.80;;;;;;;8.89;100.00;97173.88;67804;1278;1016209;-58
2023/01/16 13:02:45;;;;;;;25.00;9.10;;;;;;;9.01;100.00;97171.15;67872;1278;1016453;-58
2023/01/16 13:05:47;;;;;;;21.30;8.30;;;;;;;8.96;100.00;97165.77;67804;1277;1016312;-58
2023/01/16 13:08:59;;;;;;;21.40;7.90;;;;;;;9.05;100.00;97162.81;67802;1277;1016199;-59
2023/01/16 13:15:21;;;;;;;23.10;8.00;;;;;;;8.84;100.00;97153.11;67851;1278;1016412;-61
2023/01/16 13:18:24;;;;;;;21.10;8.00;;;;;;;8.61;100.00;97140.73;67802;1277;1018088;-61
2023/01/16 13:21:26;;;;;;;;;;;;;;;8.44;100.00;97142.17;67850;1277;1016247;-61
2023/01/16 13:24:29;;;;;;;23.10;8.80;;;;;;;8.23;100.00;97139.14;67821;1278;1016313;-58
2023/01/16 13:27:31;;;;;;;22.90;9.20;;;;;;;7.87;100.00;97130.73;67868;1277;1016468;-59
2023/01/16 13:30:34;;;;;;;23.40;9.80;;;;;;;7.64;100.00;97127.80;67764;1278;1016225;-58
2023/01/16 13:33:39;;;;;;;25.10;10.20;;;;;;;7.46;100.00;97128.13;67821;1277;1019694;-58
2023/01/16 13:36:42;;;;;;;27.00;11.40;;;;;;;7.65;100.00;97126.52;67786;1277;1015879;-58
2023/01/16 13:39:44;;;;;;;25.90;10.90;;;;;;;7.74;100.00;97123.16;67834;1278;1016244;-58
2023/01/16 13:42:47;;;;;;;28.90;11.90;;;;;;;7.70;100.00;97126.51;67777;1277;1016313;-58
2023/01/16 13:45:49;;;;;;;27.50;12.40;;;;;;;7.69;100.00;97117.02;67852;1278;1016417;-58
2023/01/16 13:48:52;;;;;;;26.80;11.70;;;;;;;7.57;100.00;97110.09;67866;1278;1016458;-58
2023/01/16 13:51:54;;;;;;;27.80;12.40;;;;;;;7.48;100.00;97103.60;67808;1277;1016908;-58
2023/01/16 13:54:56;;;;;;;28.60;12.50;;;;;;;7.47;100.00;97101.09;67825;1277;1016419;-58
2023/01/16 13:57:59;;;;;;;29.40;13.50;;;;;;;7.55;100.00;97095.63;67834;1278;1016003;-58
2023/01/16 14:01:01;;;;;;;27.80;13.10;;;;;;;7.51;100.00;97087.56;67832;1278;1016434;-58
2023/01/16 14:04:04;;;;;;;;;;;;;;;7.49;100.00;97080.80;67807;1277;1016336;-58
2023/01/16 14:10:27;;;;;;;27.70;13.20;;;;;;;7.37;100.00;97071.73;67862;1278;1016520;-59
2023/01/16 14:13:29;;;;;;;27.20;12.40;;;;;;;7.30;100.00;97069.67;67823;1277;1016341;-60
2023/01/16 14:16:33;;;;;;;26.90;11.50;;;;;;;7.10;100.00;97065.44;67831;1277;1016191;-59
2023/01/16 14:19:36;;;;;;;27.00;11.20;;;;;;;7.06;100.00;97061.59;67878;1278;1016588;-59
2023/01/16 14:25:58;;;;;;;25.60;10.80;;;;;;;6.98;100.00;97051.92;67795;1277;1019359;-59
2023/01/16 14:29:01;;;;;;;24.50;9.80;;;;;;;6.85;100.00;97044.54;67801;1278;1016517;-59
2023/01/16 14:32:04;;;;;;;27.80;10.80;;;;;;;6.85;100.00;97042.23;67822;1277;1016542;-60
2023/01/16 14:35:07;;;;;;;26.20;11.40;;;;;;;6.98;100.00;97036.92;67825;1277;1016059;-59
2023/01/16 14:38:09;;;;;;;24.20;10.10;;;;;;;7.02;100.00;97028.10;67854;1278;1016474;-59
2023/01/16 14:57:53;;;;;;;25.70;10.20;;;;;;;6.75;100.00;97007.71;67820;1278;1016453;-60
2023/01/16 15:00:56;;;;;;;30.10;10.90;;;;;;;6.72;100.00;97002.92;67890;1278;1017121;-60
2023/01/16 15:03:59;;;;;;;28.10;10.30;;;;;;;6.75;100.00;97002.49;67818;1278;1016421;-60
2023/01/16 15:07:01;;;;;;;25.60;9.80;;;;;;;6.71;100.00;97003.84;67819;1278;1015868;-59
2023/01/16 15:10:05;;;;;;;23.50;8.30;;;;;;;6.62;100.00;96997.05;67835;1277;1016433;-60